sensor_id;sensor_type;location;lat;lon;timestamp;P1;durP1;ratioP1;P2;durP2;ratioP2
65998;SDS011;52766;56.008;37.440;2022-10-22T00:02:43;17.85;;;8.85;;
65998;SDS011;52766;56.008;37.440;2022-10-22T00:08:13;18.83;;;8.75;;
65998;SDS011;52766;56.008;37.440;2022-10-22T00:19:29;17.38;;;9.07;;
65998;SDS011;52766;56.008;37.440;2022-10-22T00:21:55;22.95;;;9.95;;
65998;SDS011;52766;56.008;37.440;2022-10-22T00:27:31;24.58;;;10.38;;
65998;SDS011;52766;56.008;37.440;2022-10-22T00:29:57;22.23;;;10.55;;
65998;SDS011;52766;56.008;37.440;2022-10-22T00:32:22;28.08;;;12.90;;
65998;SDS011;52766;56.008;37.440;2022-10-22T00:34:48;28.20;;;12.75;;
65998;SDS011;52766;56.008;37.440;2022-10-22T00:37:17;32.03;;;14.20;;
65998;SDS011;52766;56.008;37.440;2022-10-22T00:39:43;31.52;;;13.90;;
65998;SDS011;52766;56.008;37.440;2022-10-22T00:42:22;34.83;;;17.55;;
65998;SDS011;52766;56.008;37.440;2022-10-22T00:47:35;36.33;;;15.90;;
65998;SDS011;52766;56.008;37.440;2022-10-22T00:50:04;31.27;;;16.52;;
65998;SDS011;52766;56.008;37.440;2022-10-22T00:58:42;17.33;;;8.45;;
65998;SDS011;52766;56.008;37.440;2022-10-22T01:01:28;17.90;;;8.57;;
65998;SDS011;52766;56.008;37.440;2022-10-22T01:03:56;18.90;;;8.23;;
65998;SDS011;52766;56.008;37.440;2022-10-22T01:21:29;18.13;;;8.77;;
65998;SDS011;52766;56.008;37.440;2022-10-22T02:00:01;21.20;;;9.93;;
65998;SDS011;52766;56.008;37.440;2022-10-22T02:02:35;17.90;;;9.80;;
65998;SDS011;52766;56.008;37.440;2022-10-22T02:07:47;19.77;;;9.52;;
65998;SDS011;52766;56.008;37.440;2022-10-22T02:10:15;20.17;;;9.55;;
65998;SDS011;52766;56.008;37.440;2022-10-22T02:12:42;21.45;;;9.15;;
65998;SDS011;52766;56.008;37.440;2022-10-22T02:15:29;21.17;;;9.48;;
65998;SDS011;52766;56.008;37.440;2022-10-22T02:17:56;25.02;;;9.43;;
65998;SDS011;52766;56.008;37.440;2022-10-22T02:20:24;21.33;;;9.10;;
65998;SDS011;52766;56.008;37.440;2022-10-22T02:22:54;19.40;;;8.30;;
65998;SDS011;52766;56.008;37.440;2022-10-22T02:25:20;19.60;;;8.57;;
65998;SDS011;52766;56.008;37.440;2022-10-22T02:27:57;18.85;;;8.55;;
65998;SDS011;52766;56.008;37.440;2022-10-22T02:34:12;21.98;;;8.82;;
65998;SDS011;52766;56.008;37.440;2022-10-22T02:36:41;18.67;;;8.57;;
65998;SDS011;52766;56.008;37.440;2022-10-22T02:39:07;20.38;;;8.57;;
65998;SDS011;52766;56.008;37.440;2022-10-22T02:41:34;18.73;;;8.68;;
65998;SDS011;52766;56.008;37.440;2022-10-22T02:44:00;21.02;;;8.20;;
65998;SDS011;52766;56.008;37.440;2022-10-22T02:46:27;23.02;;;8.70;;
65998;SDS011;52766;56.008;37.440;2022-10-22T02:48:53;18.88;;;8.52;;
65998;SDS011;52766;56.008;37.440;2022-10-22T02:51:19;21.95;;;9.05;;
65998;SDS011;52766;56.008;37.440;2022-10-22T02:54:04;20.45;;;9.50;;
65998;SDS011;52766;56.008;37.440;2022-10-22T03:02:20;22.25;;;9.63;;
65998;SDS011;52766;56.008;37.440;2022-10-22T03:05:05;24.80;;;9.20;;
65998;SDS011;52766;56.008;37.440;2022-10-22T03:19:16;18.83;;;8.07;;
65998;SDS011;52766;56.008;37.440;2022-10-22T03:22:05;19.33;;;8.45;;
65998;SDS011;52766;56.008;37.440;2022-10-22T03:24:39;27.48;;;8.77;;
65998;SDS011;52766;56.008;37.440;2022-10-22T03:30:31;19.92;;;8.38;;
65998;SDS011;52766;56.008;37.440;2022-10-22T03:32:58;21.42;;;9.15;;
65998;SDS011;52766;56.008;37.440;2022-10-22T03:35:24;20.58;;;8.32;;
65998;SDS011;52766;56.008;37.440;2022-10-22T03:37:52;25.08;;;8.05;;
65998;SDS011;52766;56.008;37.440;2022-10-22T03:40:19;18.67;;;7.63;;
65998;SDS011;52766;56.008;37.440;2022-10-22T03:42:45;21.95;;;8.77;;
65998;SDS011;52766;56.008;37.440;2022-10-22T03:45:12;20.55;;;7.90;;
65998;SDS011;52766;56.008;37.440;2022-10-22T03:47:39;19.17;;;7.68;;
65998;SDS011;52766;56.008;37.440;2022-10-22T03:50:06;20.90;;;7.57;;
65998;SDS011;52766;56.008;37.440;2022-10-22T03:52:36;18.00;;;7.30;;
65998;SDS011;52766;56.008;37.440;2022-10-22T03:55:03;20.95;;;8.23;;
65998;SDS011;52766;56.008;37.440;2022-10-22T04:00:34;20.65;;;7.13;;
65998;SDS011;52766;56.008;37.440;2022-10-22T04:03:00;22.05;;;8.30;;
65998;SDS011;52766;56.008;37.440;2022-10-22T04:16:44;13.10;;;5.65;;
65998;SDS011;52766;56.008;37.440;2022-10-22T04:19:10;16.75;;;6.30;;
65998;SDS011;52766;56.008;37.440;2022-10-22T04:21:36;15.82;;;7.13;;
65998;SDS011;52766;56.008;37.440;2022-10-22T04:24:02;19.63;;;7.30;;
65998;SDS011;52766;56.008;37.440;2022-10-22T04:29:31;18.40;;;7.13;;
65998;SDS011;52766;56.008;37.440;2022-10-22T04:40:13;18.00;;;7.20;;
65998;SDS011;52766;56.008;37.440;2022-10-22T04:42:40;17.50;;;6.68;;
65998;SDS011;52766;56.008;37.440;2022-10-22T04:45:08;14.70;;;6.70;;
65998;SDS011;52766;56.008;37.440;2022-10-22T04:47:35;15.13;;;6.53;;
65998;SDS011;52766;56.008;37.440;2022-10-22T04:50:11;16.65;;;7.13;;
65998;SDS011;52766;56.008;37.440;2022-10-22T04:56:21;15.65;;;6.57;;
65998;SDS011;52766;56.008;37.440;2022-10-22T04:58:51;14.93;;;6.53;;
65998;SDS011;52766;56.008;37.440;2022-10-22T05:01:30;12.73;;;6.22;;
65998;SDS011;52766;56.008;37.440;2022-10-22T05:04:03;13.35;;;6.00;;
65998;SDS011;52766;56.008;37.440;2022-10-22T05:06:35;13.02;;;6.18;;
65998;SDS011;52766;56.008;37.440;2022-10-22T05:09:06;16.23;;;6.28;;
65998;SDS011;52766;56.008;37.440;2022-10-22T05:12:08;14.82;;;6.05;;
65998;SDS011;52766;56.008;37.440;2022-10-22T05:14:44;14.07;;;6.78;;
65998;SDS011;52766;56.008;37.440;2022-10-22T05:17:10;17.77;;;6.90;;
65998;SDS011;52766;56.008;37.440;2022-10-22T05:19:55;18.63;;;7.43;;
65998;SDS011;52766;56.008;37.440;2022-10-22T05:22:32;15.55;;;7.20;;
65998;SDS011;52766;56.008;37.440;2022-10-22T05:25:00;15.43;;;6.43;;
65998;SDS011;52766;56.008;37.440;2022-10-22T05:27:30;16.55;;;7.25;;
65998;SDS011;52766;56.008;37.440;2022-10-22T05:29:59;17.45;;;7.47;;
65998;SDS011;52766;56.008;37.440;2022-10-22T05:32:30;14.73;;;7.13;;
65998;SDS011;52766;56.008;37.440;2022-10-22T05:34:57;13.27;;;5.88;;
65998;SDS011;52766;56.008;37.440;2022-10-22T05:37:29;14.73;;;6.53;;
65998;SDS011;52766;56.008;37.440;2022-10-22T05:40:02;15.85;;;6.57;;
65998;SDS011;52766;56.008;37.440;2022-10-22T05:42:35;17.08;;;8.98;;
65998;SDS011;52766;56.008;37.440;2022-10-22T05:45:02;14.60;;;7.43;;
65998;SDS011;52766;56.008;37.440;2022-10-22T05:47:35;13.52;;;6.45;;
65998;SDS011;52766;56.008;37.440;2022-10-22T05:50:01;14.25;;;6.43;;
65998;SDS011;52766;56.008;37.440;2022-10-22T05:52:31;16.23;;;7.07;;
65998;SDS011;52766;56.008;37.440;2022-10-22T05:55:16;14.18;;;6.00;;
65998;SDS011;52766;56.008;37.440;2022-10-22T05:57:58;11.48;;;5.60;;
65998;SDS011;52766;56.008;37.440;2022-10-22T06:00:25;11.88;;;5.80;;
65998;SDS011;52766;56.008;37.440;2022-10-22T06:02:57;12.48;;;5.30;;
65998;SDS011;52766;56.008;37.440;2022-10-22T06:05:43;12.85;;;5.55;;
65998;SDS011;52766;56.008;37.440;2022-10-22T06:08:16;11.70;;;5.32;;
65998;SDS011;52766;56.008;37.440;2022-10-22T06:10:45;9.65;;;4.32;;
65998;SDS011;52766;56.008;37.440;2022-10-22T06:13:11;10.32;;;5.22;;
65998;SDS011;52766;56.008;37.440;2022-10-22T06:15:40;10.43;;;4.70;;
65998;SDS011;52766;56.008;37.440;2022-10-22T06:29:30;8.07;;;3.65;;
65998;SDS011;52766;56.008;37.440;2022-10-22T06:32:27;8.80;;;3.60;;
65998;SDS011;52766;56.008;37.440;2022-10-22T06:35:05;8.35;;;3.80;;
65998;SDS011;52766;56.008;37.440;2022-10-22T06:37:37;7.95;;;4.07;;
65998;SDS011;52766;56.008;37.440;2022-10-22T06:40:23;10.95;;;4.18;;
65998;SDS011;52766;56.008;37.440;2022-10-22T06:43:03;9.85;;;3.67;;
65998;SDS011;52766;56.008;37.440;2022-10-22T06:45:57;11.18;;;4.97;;
65998;SDS011;52766;56.008;37.440;2022-10-22T06:48:33;16.77;;;7.00;;
65998;SDS011;52766;56.008;37.440;2022-10-22T06:51:24;16.27;;;7.63;;
65998;SDS011;52766;56.008;37.440;2022-10-22T06:54:14;13.82;;;6.50;;
65998;SDS011;52766;56.008;37.440;2022-10-22T07:00:04;15.50;;;5.65;;
65998;SDS011;52766;56.008;37.440;2022-10-22T07:02:43;14.68;;;6.45;;
65998;SDS011;52766;56.008;37.440;2022-10-22T07:05:33;10.32;;;5.18;;
65998;SDS011;52766;56.008;37.440;2022-10-22T07:08:28;11.05;;;4.82;;
65998;SDS011;52766;56.008;37.440;2022-10-22T07:11:13;10.30;;;4.97;;
65998;SDS011;52766;56.008;37.440;2022-10-22T07:13:43;7.70;;;3.97;;
65998;SDS011;52766;56.008;37.440;2022-10-22T07:16:32;10.55;;;4.72;;
65998;SDS011;52766;56.008;37.440;2022-10-22T07:19:07;8.95;;;3.70;;
65998;SDS011;52766;56.008;37.440;2022-10-22T07:21:37;10.45;;;4.03;;
65998;SDS011;52766;56.008;37.440;2022-10-22T07:24:10;9.05;;;4.22;;
65998;SDS011;52766;56.008;37.440;2022-10-22T07:26:37;9.23;;;4.35;;
65998;SDS011;52766;56.008;37.440;2022-10-22T07:29:16;6.97;;;3.38;;
65998;SDS011;52766;56.008;37.440;2022-10-22T07:31:51;8.07;;;3.90;;
65998;SDS011;52766;56.008;37.440;2022-10-22T07:34:23;7.88;;;3.75;;
65998;SDS011;52766;56.008;37.440;2022-10-22T07:37:16;9.02;;;4.28;;
65998;SDS011;52766;56.008;37.440;2022-10-22T07:39:53;5.82;;;3.10;;
65998;SDS011;52766;56.008;37.440;2022-10-22T07:42:21;7.03;;;3.22;;
65998;SDS011;52766;56.008;37.440;2022-10-22T07:45:03;7.28;;;3.60;;
65998;SDS011;52766;56.008;37.440;2022-10-22T07:47:34;6.57;;;3.38;;
65998;SDS011;52766;56.008;37.440;2022-10-22T07:50:08;10.15;;;3.85;;
65998;SDS011;52766;56.008;37.440;2022-10-22T07:52:41;10.40;;;4.38;;
65998;SDS011;52766;56.008;37.440;2022-10-22T07:55:08;9.23;;;3.95;;
65998;SDS011;52766;56.008;37.440;2022-10-22T07:57:40;6.20;;;3.13;;
65998;SDS011;52766;56.008;37.440;2022-10-22T08:00:41;11.27;;;4.20;;
65998;SDS011;52766;56.008;37.440;2022-10-22T08:03:17;6.90;;;3.55;;
65998;SDS011;52766;56.008;37.440;2022-10-22T08:05:45;7.70;;;4.15;;
65998;SDS011;52766;56.008;37.440;2022-10-22T08:08:24;8.98;;;3.55;;
65998;SDS011;52766;56.008;37.440;2022-10-22T08:10:55;7.65;;;4.18;;
65998;SDS011;52766;56.008;37.440;2022-10-22T08:13:23;8.13;;;3.85;;
65998;SDS011;52766;56.008;37.440;2022-10-22T08:15:52;8.85;;;4.13;;
65998;SDS011;52766;56.008;37.440;2022-10-22T08:18:35;9.07;;;3.47;;
65998;SDS011;52766;56.008;37.440;2022-10-22T08:21:04;6.80;;;3.60;;
65998;SDS011;52766;56.008;37.440;2022-10-22T08:23:42;6.60;;;3.20;;
65998;SDS011;52766;56.008;37.440;2022-10-22T08:26:14;6.88;;;2.83;;
65998;SDS011;52766;56.008;37.440;2022-10-22T08:28:41;7.43;;;3.92;;
65998;SDS011;52766;56.008;37.440;2022-10-22T08:31:08;6.90;;;3.45;;
65998;SDS011;52766;56.008;37.440;2022-10-22T08:34:00;8.13;;;3.90;;
65998;SDS011;52766;56.008;37.440;2022-10-22T08:36:33;7.22;;;3.58;;
65998;SDS011;52766;56.008;37.440;2022-10-22T08:39:00;7.90;;;3.85;;
65998;SDS011;52766;56.008;37.440;2022-10-22T08:41:29;9.93;;;3.97;;
65998;SDS011;52766;56.008;37.440;2022-10-22T08:44:00;9.18;;;3.33;;
65998;SDS011;52766;56.008;37.440;2022-10-22T08:47:09;8.02;;;4.00;;
65998;SDS011;52766;56.008;37.440;2022-10-22T08:50:11;7.95;;;3.50;;
65998;SDS011;52766;56.008;37.440;2022-10-22T08:52:47;9.50;;;4.10;;
65998;SDS011;52766;56.008;37.440;2022-10-22T09:07:13;7.10;;;4.43;;
65998;SDS011;52766;56.008;37.440;2022-10-22T09:09:45;8.80;;;4.57;;
65998;SDS011;52766;56.008;37.440;2022-10-22T09:12:15;8.00;;;4.05;;
65998;SDS011;52766;56.008;37.440;2022-10-22T09:14:42;6.68;;;3.85;;
65998;SDS011;52766;56.008;37.440;2022-10-22T09:17:35;8.45;;;4.07;;
65998;SDS011;52766;56.008;37.440;2022-10-22T09:26:07;10.80;;;4.30;;
65998;SDS011;52766;56.008;37.440;2022-10-22T09:28:47;11.07;;;4.90;;
65998;SDS011;52766;56.008;37.440;2022-10-22T09:31:30;6.63;;;3.70;;
65998;SDS011;52766;56.008;37.440;2022-10-22T09:34:00;11.48;;;4.55;;
65998;SDS011;52766;56.008;37.440;2022-10-22T09:36:35;7.88;;;4.32;;
65998;SDS011;52766;56.008;37.440;2022-10-22T09:39:19;9.73;;;4.75;;
65998;SDS011;52766;56.008;37.440;2022-10-22T09:41:56;10.13;;;4.45;;
65998;SDS011;52766;56.008;37.440;2022-10-22T09:44:32;7.32;;;4.20;;
65998;SDS011;52766;56.008;37.440;2022-10-22T09:47:04;8.63;;;4.18;;
65998;SDS011;52766;56.008;37.440;2022-10-22T09:49:33;10.18;;;4.10;;
65998;SDS011;52766;56.008;37.440;2022-10-22T09:52:06;8.90;;;4.25;;
65998;SDS011;52766;56.008;37.440;2022-10-22T09:57:55;10.35;;;5.13;;
65998;SDS011;52766;56.008;37.440;2022-10-22T10:00:26;9.25;;;4.68;;
65998;SDS011;52766;56.008;37.440;2022-10-22T10:02:59;6.95;;;4.03;;
65998;SDS011;52766;56.008;37.440;2022-10-22T10:05:32;8.60;;;4.10;;
65998;SDS011;52766;56.008;37.440;2022-10-22T10:08:06;8.85;;;4.15;;
65998;SDS011;52766;56.008;37.440;2022-10-22T10:10:50;8.35;;;4.22;;
65998;SDS011;52766;56.008;37.440;2022-10-22T10:22:22;9.48;;;3.67;;
65998;SDS011;52766;56.008;37.440;2022-10-22T10:25:15;7.20;;;4.22;;
65998;SDS011;52766;56.008;37.440;2022-10-22T10:28:12;10.40;;;4.70;;
65998;SDS011;52766;56.008;37.440;2022-10-22T10:30:53;7.03;;;3.55;;
65998;SDS011;52766;56.008;37.440;2022-10-22T10:33:37;6.75;;;3.15;;
65998;SDS011;52766;56.008;37.440;2022-10-22T10:41:55;7.88;;;4.07;;
65998;SDS011;52766;56.008;37.440;2022-10-22T10:44:31;7.18;;;3.40;;
65998;SDS011;52766;56.008;37.440;2022-10-22T10:59:13;9.15;;;4.07;;
65998;SDS011;52766;56.008;37.440;2022-10-22T11:04:51;7.15;;;3.33;;
65998;SDS011;52766;56.008;37.440;2022-10-22T11:07:53;9.32;;;3.60;;
65998;SDS011;52766;56.008;37.440;2022-10-22T11:13:41;8.45;;;3.25;;
65998;SDS011;52766;56.008;37.440;2022-10-22T11:19:42;14.20;;;4.45;;
65998;SDS011;52766;56.008;37.440;2022-10-22T11:24:51;6.20;;;3.22;;
65998;SDS011;52766;56.008;37.440;2022-10-22T11:30:07;11.48;;;4.55;;
65998;SDS011;52766;56.008;37.440;2022-10-22T11:32:37;12.00;;;4.10;;
65998;SDS011;52766;56.008;37.440;2022-10-22T11:35:07;8.80;;;3.85;;
65998;SDS011;52766;56.008;37.440;2022-10-22T11:37:39;7.70;;;3.78;;
65998;SDS011;52766;56.008;37.440;2022-10-22T11:40:09;7.13;;;3.75;;
65998;SDS011;52766;56.008;37.440;2022-10-22T11:42:44;6.32;;;3.53;;
65998;SDS011;52766;56.008;37.440;2022-10-22T11:50:58;7.28;;;4.22;;
65998;SDS011;52766;56.008;37.440;2022-10-22T11:53:35;8.23;;;3.80;;
65998;SDS011;52766;56.008;37.440;2022-10-22T11:58:57;11.50;;;4.68;;
65998;SDS011;52766;56.008;37.440;2022-10-22T12:01:26;11.48;;;5.97;;
65998;SDS011;52766;56.008;37.440;2022-10-22T12:06:23;8.60;;;5.07;;
65998;SDS011;52766;56.008;37.440;2022-10-22T12:08:56;11.77;;;5.10;;
65998;SDS011;52766;56.008;37.440;2022-10-22T12:11:34;10.85;;;6.07;;
65998;SDS011;52766;56.008;37.440;2022-10-22T12:14:23;13.95;;;6.00;;
65998;SDS011;52766;56.008;37.440;2022-10-22T12:19:37;9.27;;;5.85;;
65998;SDS011;52766;56.008;37.440;2022-10-22T12:24:51;15.18;;;6.45;;
65998;SDS011;52766;56.008;37.440;2022-10-22T12:30:02;14.55;;;6.43;;
65998;SDS011;52766;56.008;37.440;2022-10-22T12:32:43;11.50;;;6.85;;
65998;SDS011;52766;56.008;37.440;2022-10-22T12:35:17;12.45;;;6.75;;
65998;SDS011;52766;56.008;37.440;2022-10-22T12:37:48;11.68;;;6.65;;
65998;SDS011;52766;56.008;37.440;2022-10-22T12:40:19;12.38;;;6.65;;
65998;SDS011;52766;56.008;37.440;2022-10-22T12:43:00;12.32;;;6.00;;
65998;SDS011;52766;56.008;37.440;2022-10-22T12:45:32;17.88;;;8.20;;
65998;SDS011;52766;56.008;37.440;2022-10-22T12:48:05;11.73;;;6.03;;
65998;SDS011;52766;56.008;37.440;2022-10-22T12:50:41;11.23;;;6.25;;
65998;SDS011;52766;56.008;37.440;2022-10-22T12:53:17;12.82;;;6.40;;
65998;SDS011;52766;56.008;37.440;2022-10-22T12:55:47;12.55;;;5.22;;
65998;SDS011;52766;56.008;37.440;2022-10-22T12:58:15;9.27;;;4.93;;
65998;SDS011;52766;56.008;37.440;2022-10-22T13:00:47;8.05;;;4.93;;
65998;SDS011;52766;56.008;37.440;2022-10-22T13:03:42;12.75;;;5.57;;
65998;SDS011;52766;56.008;37.440;2022-10-22T13:08:55;10.13;;;5.07;;
65998;SDS011;52766;56.008;37.440;2022-10-22T13:11:39;13.95;;;5.88;;
65998;SDS011;52766;56.008;37.440;2022-10-22T13:27:47;12.07;;;5.40;;
65998;SDS011;52766;56.008;37.440;2022-10-22T13:30:32;10.43;;;4.88;;
65998;SDS011;52766;56.008;37.440;2022-10-22T13:33:00;15.50;;;5.65;;
65998;SDS011;52766;56.008;37.440;2022-10-22T13:35:29;11.30;;;5.75;;
65998;SDS011;52766;56.008;37.440;2022-10-22T13:37:58;10.90;;;6.65;;
65998;SDS011;52766;56.008;37.440;2022-10-22T13:40:25;14.38;;;7.47;;
65998;SDS011;52766;56.008;37.440;2022-10-22T13:42:51;20.00;;;10.50;;
65998;SDS011;52766;56.008;37.440;2022-10-22T13:45:19;14.60;;;7.75;;
65998;SDS011;52766;56.008;37.440;2022-10-22T13:47:52;12.95;;;5.97;;
65998;SDS011;52766;56.008;37.440;2022-10-22T13:50:20;10.20;;;5.50;;
65998;SDS011;52766;56.008;37.440;2022-10-22T13:52:49;9.95;;;5.22;;
65998;SDS011;52766;56.008;37.440;2022-10-22T13:55:23;13.23;;;6.88;;
65998;SDS011;52766;56.008;37.440;2022-10-22T14:00:48;11.05;;;5.53;;
65998;SDS011;52766;56.008;37.440;2022-10-22T14:03:20;11.48;;;5.40;;
65998;SDS011;52766;56.008;37.440;2022-10-22T14:05:51;15.07;;;6.72;;
65998;SDS011;52766;56.008;37.440;2022-10-22T14:08:18;13.05;;;6.20;;
65998;SDS011;52766;56.008;37.440;2022-10-22T14:10:47;15.43;;;6.40;;
65998;SDS011;52766;56.008;37.440;2022-10-22T14:13:14;9.55;;;4.32;;
65998;SDS011;52766;56.008;37.440;2022-10-22T14:15:47;6.45;;;3.03;;
65998;SDS011;52766;56.008;37.440;2022-10-22T14:21:14;6.10;;;3.08;;
65998;SDS011;52766;56.008;37.440;2022-10-22T14:23:55;9.43;;;4.07;;
65998;SDS011;52766;56.008;37.440;2022-10-22T14:26:37;8.52;;;3.63;;
65998;SDS011;52766;56.008;37.440;2022-10-22T14:29:11;10.25;;;4.47;;
65998;SDS011;52766;56.008;37.440;2022-10-22T14:31:42;9.38;;;4.65;;
65998;SDS011;52766;56.008;37.440;2022-10-22T14:34:35;9.60;;;4.78;;
65998;SDS011;52766;56.008;37.440;2022-10-22T14:37:08;13.77;;;7.00;;
65998;SDS011;52766;56.008;37.440;2022-10-22T14:39:54;13.55;;;7.20;;
65998;SDS011;52766;56.008;37.440;2022-10-22T14:42:39;14.07;;;7.22;;
65998;SDS011;52766;56.008;37.440;2022-10-22T14:45:30;9.40;;;4.85;;
65998;SDS011;52766;56.008;37.440;2022-10-22T14:47:56;12.30;;;5.72;;
65998;SDS011;52766;56.008;37.440;2022-10-22T14:50:27;10.93;;;6.20;;
65998;SDS011;52766;56.008;37.440;2022-10-22T14:52:56;12.18;;;5.35;;
65998;SDS011;52766;56.008;37.440;2022-10-22T14:55:26;10.75;;;5.05;;
65998;SDS011;52766;56.008;37.440;2022-10-22T14:57:54;10.15;;;5.53;;
65998;SDS011;52766;56.008;37.440;2022-10-22T15:00:25;10.65;;;5.35;;
65998;SDS011;52766;56.008;37.440;2022-10-22T15:02:56;9.13;;;4.32;;
65998;SDS011;52766;56.008;37.440;2022-10-22T15:05:28;9.45;;;4.55;;
65998;SDS011;52766;56.008;37.440;2022-10-22T15:11:16;8.88;;;4.35;;
65998;SDS011;52766;56.008;37.440;2022-10-22T15:13:47;11.55;;;4.55;;
65998;SDS011;52766;56.008;37.440;2022-10-22T15:16:14;10.23;;;4.57;;
65998;SDS011;52766;56.008;37.440;2022-10-22T15:18:41;10.73;;;4.10;;
65998;SDS011;52766;56.008;37.440;2022-10-22T15:21:30;7.75;;;3.70;;
65998;SDS011;52766;56.008;37.440;2022-10-22T15:23:57;8.75;;;4.18;;
65998;SDS011;52766;56.008;37.440;2022-10-22T15:26:24;7.40;;;4.20;;
65998;SDS011;52766;56.008;37.440;2022-10-22T15:28:54;11.23;;;5.43;;
65998;SDS011;52766;56.008;37.440;2022-10-22T15:34:27;9.60;;;4.07;;
65998;SDS011;52766;56.008;37.440;2022-10-22T15:37:02;15.38;;;6.30;;
65998;SDS011;52766;56.008;37.440;2022-10-22T15:39:40;13.25;;;6.07;;
65998;SDS011;52766;56.008;37.440;2022-10-22T15:42:07;11.65;;;5.35;;
65998;SDS011;52766;56.008;37.440;2022-10-22T15:44:40;9.27;;;4.53;;
65998;SDS011;52766;56.008;37.440;2022-10-22T15:47:10;9.10;;;4.47;;
65998;SDS011;52766;56.008;37.440;2022-10-22T15:49:41;9.75;;;4.38;;
65998;SDS011;52766;56.008;37.440;2022-10-22T15:52:08;9.63;;;4.05;;
65998;SDS011;52766;56.008;37.440;2022-10-22T15:54:34;10.18;;;4.97;;
65998;SDS011;52766;56.008;37.440;2022-10-22T15:57:07;9.93;;;4.47;;
65998;SDS011;52766;56.008;37.440;2022-10-22T15:59:37;13.68;;;6.82;;
65998;SDS011;52766;56.008;37.440;2022-10-22T16:02:09;10.18;;;5.03;;
65998;SDS011;52766;56.008;37.440;2022-10-22T16:04:39;7.75;;;4.40;;
65998;SDS011;52766;56.008;37.440;2022-10-22T16:07:17;9.40;;;4.32;;
65998;SDS011;52766;56.008;37.440;2022-10-22T16:09:45;11.57;;;5.13;;
65998;SDS011;52766;56.008;37.440;2022-10-22T16:12:16;10.38;;;4.43;;
65998;SDS011;52766;56.008;37.440;2022-10-22T16:17:59;10.32;;;4.68;;
65998;SDS011;52766;56.008;37.440;2022-10-22T16:20:46;10.90;;;4.90;;
65998;SDS011;52766;56.008;37.440;2022-10-22T16:23:22;10.75;;;5.28;;
65998;SDS011;52766;56.008;37.440;2022-10-22T16:25:52;11.13;;;5.43;;
65998;SDS011;52766;56.008;37.440;2022-10-22T16:28:40;9.15;;;4.60;;
65998;SDS011;52766;56.008;37.440;2022-10-22T16:31:18;8.10;;;4.63;;
65998;SDS011;52766;56.008;37.440;2022-10-22T16:33:47;10.23;;;4.70;;
65998;SDS011;52766;56.008;37.440;2022-10-22T16:36:26;9.82;;;5.30;;
65998;SDS011;52766;56.008;37.440;2022-10-22T16:38:55;7.93;;;4.70;;
65998;SDS011;52766;56.008;37.440;2022-10-22T16:41:26;11.23;;;5.72;;
65998;SDS011;52766;56.008;37.440;2022-10-22T16:44:05;9.35;;;5.47;;
65998;SDS011;52766;56.008;37.440;2022-10-22T16:46:33;13.98;;;5.15;;
65998;SDS011;52766;56.008;37.440;2022-10-22T16:49:04;13.63;;;5.95;;
65998;SDS011;52766;56.008;37.440;2022-10-22T16:51:31;12.50;;;5.72;;
65998;SDS011;52766;56.008;37.440;2022-10-22T16:54:00;13.63;;;5.07;;
65998;SDS011;52766;56.008;37.440;2022-10-22T16:56:27;14.23;;;5.88;;
65998;SDS011;52766;56.008;37.440;2022-10-22T16:58:55;11.55;;;5.47;;
65998;SDS011;52766;56.008;37.440;2022-10-22T17:01:24;13.15;;;5.97;;
65998;SDS011;52766;56.008;37.440;2022-10-22T17:03:55;10.75;;;5.63;;
65998;SDS011;52766;56.008;37.440;2022-10-22T17:06:26;14.25;;;6.65;;
65998;SDS011;52766;56.008;37.440;2022-10-22T17:08:55;12.65;;;6.35;;
65998;SDS011;52766;56.008;37.440;2022-10-22T17:11:22;11.63;;;6.40;;
65998;SDS011;52766;56.008;37.440;2022-10-22T17:16:43;12.38;;;6.22;;
65998;SDS011;52766;56.008;37.440;2022-10-22T17:19:28;18.17;;;7.45;;
65998;SDS011;52766;56.008;37.440;2022-10-22T17:22:31;16.98;;;6.30;;
65998;SDS011;52766;56.008;37.440;2022-10-22T17:27:47;11.85;;;7.00;;
65998;SDS011;52766;56.008;37.440;2022-10-22T17:30:22;19.65;;;8.30;;
65998;SDS011;52766;56.008;37.440;2022-10-22T17:32:54;26.27;;;10.07;;
65998;SDS011;52766;56.008;37.440;2022-10-22T17:35:32;18.85;;;7.65;;
65998;SDS011;52766;56.008;37.440;2022-10-22T17:38:08;35.50;;;15.00;;
65998;SDS011;52766;56.008;37.440;2022-10-22T17:40:35;16.20;;;7.45;;
65998;SDS011;52766;56.008;37.440;2022-10-22T17:43:06;14.63;;;6.85;;
65998;SDS011;52766;56.008;37.440;2022-10-22T17:45:32;16.25;;;6.78;;
65998;SDS011;52766;56.008;37.440;2022-10-22T17:48:05;13.40;;;6.15;;
65998;SDS011;52766;56.008;37.440;2022-10-22T17:50:40;12.95;;;6.60;;
65998;SDS011;52766;56.008;37.440;2022-10-22T17:53:08;15.57;;;6.68;;
65998;SDS011;52766;56.008;37.440;2022-10-22T17:55:39;14.48;;;6.68;;
65998;SDS011;52766;56.008;37.440;2022-10-22T17:58:07;14.40;;;6.85;;
65998;SDS011;52766;56.008;37.440;2022-10-22T18:00:39;16.65;;;8.27;;
65998;SDS011;52766;56.008;37.440;2022-10-22T18:03:10;18.80;;;9.75;;
65998;SDS011;52766;56.008;37.440;2022-10-22T18:05:47;19.65;;;8.75;;
65998;SDS011;52766;56.008;37.440;2022-10-22T18:08:20;18.23;;;7.45;;
65998;SDS011;52766;56.008;37.440;2022-10-22T18:10:52;15.25;;;6.75;;
65998;SDS011;52766;56.008;37.440;2022-10-22T18:13:24;14.48;;;7.30;;
65998;SDS011;52766;56.008;37.440;2022-10-22T18:15:54;16.70;;;7.10;;
65998;SDS011;52766;56.008;37.440;2022-10-22T18:18:26;16.50;;;7.38;;
65998;SDS011;52766;56.008;37.440;2022-10-22T18:20:56;20.80;;;7.43;;
65998;SDS011;52766;56.008;37.440;2022-10-22T18:23:25;17.85;;;8.27;;
65998;SDS011;52766;56.008;37.440;2022-10-22T18:25:52;19.92;;;7.75;;
65998;SDS011;52766;56.008;37.440;2022-10-22T18:28:19;15.25;;;7.47;;
65998;SDS011;52766;56.008;37.440;2022-10-22T18:30:46;19.55;;;8.55;;
65998;SDS011;52766;56.008;37.440;2022-10-22T18:33:14;17.60;;;7.43;;
65998;SDS011;52766;56.008;37.440;2022-10-22T18:35:42;16.95;;;7.07;;
65998;SDS011;52766;56.008;37.440;2022-10-22T18:38:14;19.00;;;6.60;;
65998;SDS011;52766;56.008;37.440;2022-10-22T18:40:44;16.10;;;7.15;;
65998;SDS011;52766;56.008;37.440;2022-10-22T18:43:13;18.10;;;7.90;;
65998;SDS011;52766;56.008;37.440;2022-10-22T18:48:11;16.75;;;8.98;;
65998;SDS011;52766;56.008;37.440;2022-10-22T18:50:40;17.98;;;7.28;;
65998;SDS011;52766;56.008;37.440;2022-10-22T18:53:06;19.15;;;7.75;;
65998;SDS011;52766;56.008;37.440;2022-10-22T18:55:33;14.15;;;7.55;;
65998;SDS011;52766;56.008;37.440;2022-10-22T18:58:03;21.25;;;8.27;;
65998;SDS011;52766;56.008;37.440;2022-10-22T19:00:29;15.68;;;7.50;;
65998;SDS011;52766;56.008;37.440;2022-10-22T19:02:59;25.98;;;7.82;;
65998;SDS011;52766;56.008;37.440;2022-10-22T19:12:39;14.05;;;6.03;;
65998;SDS011;52766;56.008;37.440;2022-10-22T19:15:11;13.98;;;6.38;;
65998;SDS011;52766;56.008;37.440;2022-10-22T19:17:42;12.95;;;6.50;;
65998;SDS011;52766;56.008;37.440;2022-10-22T19:20:12;12.00;;;6.53;;
65998;SDS011;52766;56.008;37.440;2022-10-22T19:22:48;10.82;;;6.00;;
65998;SDS011;52766;56.008;37.440;2022-10-22T19:25:16;16.63;;;6.22;;
65998;SDS011;52766;56.008;37.440;2022-10-22T19:27:47;19.40;;;7.65;;
65998;SDS011;52766;56.008;37.440;2022-10-22T19:30:14;15.98;;;6.72;;
65998;SDS011;52766;56.008;37.440;2022-10-22T19:32:46;23.63;;;7.63;;
65998;SDS011;52766;56.008;37.440;2022-10-22T19:35:16;19.05;;;6.93;;
65998;SDS011;52766;56.008;37.440;2022-10-22T19:37:44;13.95;;;6.53;;